sensor_id;sensor_type;location;lat;lon;timestamp;pressure;altitude;pressure_sealevel;temperature;humidity
59409;BME280;45213;32.654;-115.458;2023-02-23T00:02:05;101087.81;;;13.75;31.14
59409;BME280;45213;32.654;-115.458;2023-02-23T00:04:33;101091.28;;;13.65;31.36
59409;BME280;45213;32.654;-115.458;2023-02-23T00:07:00;101089.56;;;13.73;30.76
59409;BME280;45213;32.654;-115.458;2023-02-23T00:09:26;101102.63;;;13.67;30.96
59409;BME280;45213;32.654;-115.458;2023-02-23T00:12:02;101088.66;;;13.65;31.60
59409;BME280;45213;32.654;-115.458;2023-02-23T00:14:33;101095.69;;;13.81;32.48
59409;BME280;45213;32.654;-115.458;2023-02-23T00:17:00;101105.25;;;13.74;31.94
59409;BME280;45213;32.654;-115.458;2023-02-23T00:19:27;101108.69;;;13.49;31.75
59409;BME280;45213;32.654;-115.458;2023-02-23T00:21:54;101112.16;;;13.39;31.25
59409;BME280;45213;32.654;-115.458;2023-02-23T00:24:23;101101.72;;;13.52;30.87
59409;BME280;45213;32.654;-115.458;2023-02-23T00:26:52;101102.63;;;13.51;30.92
59409;BME280;45213;32.654;-115.458;2023-02-23T00:29:21;101100.88;;;13.52;30.84
59409;BME280;45213;32.654;-115.458;2023-02-23T00:31:49;101106.94;;;13.34;31.23
59409;BME280;45213;32.654;-115.458;2023-02-23T00:34:18;101108.69;;;13.53;30.11
59409;BME280;45213;32.654;-115.458;2023-02-23T00:36:50;101112.22;;;13.63;28.94
59409;BME280;45213;32.654;-115.458;2023-02-23T00:39:19;101141.91;;;13.70;28.61
59409;BME280;45213;32.654;-115.458;2023-02-23T00:41:50;101118.31;;;13.59;29.36
59409;BME280;45213;32.654;-115.458;2023-02-23T00:44:21;101138.34;;;13.40;29.20
59409;BME280;45213;32.654;-115.458;2023-02-23T00:46:49;101138.31;;;13.37;28.84
59409;BME280;45213;32.654;-115.458;2023-02-23T00:49:17;101140.88;;;13.26;29.35
59409;BME280;45213;32.654;-115.458;2023-02-23T00:51:44;101155.63;;;13.16;30.18
59409;BME280;45213;32.654;-115.458;2023-02-23T00:54:12;101159.16;;;13.22;30.71
59409;BME280;45213;32.654;-115.458;2023-02-23T00:56:39;101144.34;;;13.27;31.05
59409;BME280;45213;32.654;-115.458;2023-02-23T00:59:06;101155.66;;;13.23;31.58
59409;BME280;45213;32.654;-115.458;2023-02-23T01:01:33;101156.50;;;13.14;32.09
59409;BME280;45213;32.654;-115.458;2023-02-23T01:04:00;101145.13;;;13.07;32.15
59409;BME280;45213;32.654;-115.458;2023-02-23T01:06:27;101143.47;;;13.25;31.88
59409;BME280;45213;32.654;-115.458;2023-02-23T01:08:56;101151.28;;;13.11;32.54
59409;BME280;45213;32.654;-115.458;2023-02-23T01:11:26;101150.31;;;13.01;33.37
59409;BME280;45213;32.654;-115.458;2023-02-23T01:13:55;101158.22;;;13.07;32.70
59409;BME280;45213;32.654;-115.458;2023-02-23T01:16:25;101162.50;;;12.93;32.11
59409;BME280;45213;32.654;-115.458;2023-02-23T01:18:54;101165.03;;;12.74;32.84
59409;BME280;45213;32.654;-115.458;2023-02-23T01:21:35;101171.97;;;12.72;32.94
59409;BME280;45213;32.654;-115.458;2023-02-23T01:24:02;101172.81;;;12.65;33.55
59409;BME280;45213;32.654;-115.458;2023-02-23T01:26:32;101163.91;;;12.42;33.59
59409;BME280;45213;32.654;-115.458;2023-02-23T01:29:14;101171.59;;;12.23;33.92
59409;BME280;45213;32.654;-115.458;2023-02-23T01:31:45;101161.03;;;12.06;34.18
59409;BME280;45213;32.654;-115.458;2023-02-23T01:34:17;101167.00;;;11.95;34.36
59409;BME280;45213;32.654;-115.458;2023-02-23T01:36:44;101176.56;;;11.93;34.58
59409;BME280;45213;32.654;-115.458;2023-02-23T01:39:13;101161.81;;;12.01;34.30
59409;BME280;45213;32.654;-115.458;2023-02-23T01:41:40;101172.22;;;11.96;34.35
59409;BME280;45213;32.654;-115.458;2023-02-23T01:46:42;101177.47;;;11.98;33.40
59409;BME280;45213;32.654;-115.458;2023-02-23T01:49:17;101196.56;;;11.94;32.94
59409;BME280;45213;32.654;-115.458;2023-02-23T01:51:58;101188.59;;;11.84;33.25
59409;BME280;45213;32.654;-115.458;2023-02-23T01:54:37;101181.59;;;11.79;33.57
59409;BME280;45213;32.654;-115.458;2023-02-23T01:57:05;101198.09;;;11.75;34.03
59409;BME280;45213;32.654;-115.458;2023-02-23T01:59:42;101206.66;;;11.63;34.63
59409;BME280;45213;32.654;-115.458;2023-02-23T02:02:09;101203.09;;;11.56;35.33
59409;BME280;45213;32.654;-115.458;2023-02-23T02:04:38;101207.34;;;11.48;36.03
59409;BME280;45213;32.654;-115.458;2023-02-23T02:07:25;101215.13;;;11.46;36.53
59409;BME280;45213;32.654;-115.458;2023-02-23T02:09:54;101231.56;;;11.39;37.07
59409;BME280;45213;32.654;-115.458;2023-02-23T02:12:41;101236.00;;;11.46;37.62
59409;BME280;45213;32.654;-115.458;2023-02-23T02:15:09;101236.81;;;11.41;38.29
59409;BME280;45213;32.654;-115.458;2023-02-23T02:26:41;101250.41;;;11.18;41.36
59409;BME280;45213;32.654;-115.458;2023-02-23T02:38:18;101259.00;;;11.11;42.97
59409;BME280;45213;32.654;-115.458;2023-02-23T02:41:01;101265.25;;;11.24;42.95
59409;BME280;45213;32.654;-115.458;2023-02-23T02:43:41;101262.59;;;11.21;42.85
59409;BME280;45213;32.654;-115.458;2023-02-23T02:46:32;101275.47;;;11.08;43.14
59409;BME280;45213;32.654;-115.458;2023-02-23T02:49:14;101282.44;;;11.10;43.25
59409;BME280;45213;32.654;-115.458;2023-02-23T02:51:50;101284.22;;;11.14;42.95
59409;BME280;45213;32.654;-115.458;2023-02-23T02:54:47;101285.91;;;11.08;43.31
59409;BME280;45213;32.654;-115.458;2023-02-23T02:57:14;101291.09;;;11.07;43.00
59409;BME280;45213;32.654;-115.458;2023-02-23T02:59:47;101300.66;;;11.10;43.56
59409;BME280;45213;32.654;-115.458;2023-02-23T03:02:39;101305.03;;;11.11;42.55
59409;BME280;45213;32.654;-115.458;2023-02-23T03:05:51;101305.72;;;10.99;42.13
59409;BME280;45213;32.654;-115.458;2023-02-23T03:08:53;101322.03;;;10.85;42.28
59409;BME280;45213;32.654;-115.458;2023-02-23T03:11:53;101324.75;;;10.93;42.44
59409;BME280;45213;32.654;-115.458;2023-02-23T03:18:13;101337.72;;;10.90;42.85
59409;BME280;45213;32.654;-115.458;2023-02-23T03:21:04;101335.97;;;10.89;43.24
59409;BME280;45213;32.654;-115.458;2023-02-23T03:27:27;101341.97;;;10.85;42.93
59409;BME280;45213;32.654;-115.458;2023-02-23T03:30:27;101338.41;;;10.80;43.33
59409;BME280;45213;32.654;-115.458;2023-02-23T03:33:19;101320.03;;;10.71;43.07
59409;BME280;45213;32.654;-115.458;2023-02-23T03:36:14;101325.28;;;10.74;42.68
59409;BME280;45213;32.654;-115.458;2023-02-23T03:39:20;101308.16;;;10.88;41.98
59409;BME280;45213;32.654;-115.458;2023-02-23T03:42:15;101296.03;;;10.90;41.67
59409;BME280;45213;32.654;-115.458;2023-02-23T03:45:09;101293.44;;;10.90;41.50
59409;BME280;45213;32.654;-115.458;2023-02-23T03:47:57;101299.59;;;10.95;40.52
59409;BME280;45213;32.654;-115.458;2023-02-23T03:50:49;101288.22;;;10.92;40.30
59409;BME280;45213;32.654;-115.458;2023-02-23T03:53:42;101295.97;;;10.85;40.44
59409;BME280;45213;32.654;-115.458;2023-02-23T03:56:30;101274.22;;;10.83;39.81
59409;BME280;45213;32.654;-115.458;2023-02-23T03:59:19;101290.09;;;11.00;39.10
59409;BME280;45213;32.654;-115.458;2023-02-23T04:02:08;101300.03;;;11.24;39.12
59409;BME280;45213;32.654;-115.458;2023-02-23T04:04:56;101312.16;;;11.24;37.72
59409;BME280;45213;32.654;-115.458;2023-02-23T04:07:45;101314.88;;;11.30;38.60
59409;BME280;45213;32.654;-115.458;2023-02-23T04:10:33;101321.00;;;11.32;39.14
59409;BME280;45213;32.654;-115.458;2023-02-23T04:13:23;101308.84;;;11.34;38.76
59409;BME280;45213;32.654;-115.458;2023-02-23T04:16:07;101307.19;;;11.39;39.71
59409;BME280;45213;32.654;-115.458;2023-02-23T04:18:38;101313.00;;;11.21;37.74
59409;BME280;45213;32.654;-115.458;2023-02-23T04:21:06;101311.97;;;11.10;36.53
59409;BME280;45213;32.654;-115.458;2023-02-23T04:23:34;101304.19;;;11.12;36.20
59409;BME280;45213;32.654;-115.458;2023-02-23T04:26:01;101303.31;;;11.11;35.31
59409;BME280;45213;32.654;-115.458;2023-02-23T04:28:27;101311.22;;;11.19;34.68
59409;BME280;45213;32.654;-115.458;2023-02-23T04:30:54;101312.16;;;11.22;34.67
59409;BME280;45213;32.654;-115.458;2023-02-23T04:33:21;101321.69;;;11.20;34.92
59409;BME280;45213;32.654;-115.458;2023-02-23T04:35:52;101344.28;;;11.21;34.84
59409;BME280;45213;32.654;-115.458;2023-02-23T04:38:20;101348.69;;;11.25;35.14
59409;BME280;45213;32.654;-115.458;2023-02-23T04:40:48;101353.84;;;11.21;35.04
59409;BME280;45213;32.654;-115.458;2023-02-23T04:43:15;101355.63;;;11.22;35.26
59409;BME280;45213;32.654;-115.458;2023-02-23T04:45:41;101360.75;;;11.19;34.95
59409;BME280;45213;32.654;-115.458;2023-02-23T04:48:09;101369.44;;;11.18;35.23
59409;BME280;45213;32.654;-115.458;2023-02-23T04:50:35;101370.31;;;11.18;35.49
59409;BME280;45213;32.654;-115.458;2023-02-23T04:53:02;101369.44;;;11.18;35.19
59409;BME280;45213;32.654;-115.458;2023-02-23T04:55:28;101378.97;;;11.16;35.25
59409;BME280;45213;32.654;-115.458;2023-02-23T04:58:00;101374.69;;;11.21;35.26
59409;BME280;45213;32.654;-115.458;2023-02-23T05:00:28;101387.63;;;11.15;35.37
59409;BME280;45213;32.654;-115.458;2023-02-23T05:02:55;101392.00;;;11.16;35.02
59409;BME280;45213;32.654;-115.458;2023-02-23T05:05:22;101390.22;;;11.15;34.62
59409;BME280;45213;32.654;-115.458;2023-02-23T05:07:48;101394.66;;;11.19;34.62
59409;BME280;45213;32.654;-115.458;2023-02-23T05:10:15;101398.88;;;11.11;34.86
59409;BME280;45213;32.654;-115.458;2023-02-23T05:12:41;101391.16;;;11.18;34.34
59409;BME280;45213;32.654;-115.458;2023-02-23T05:15:08;101395.38;;;11.08;34.39
59409;BME280;45213;32.654;-115.458;2023-02-23T05:17:37;101406.75;;;11.14;34.33
59409;BME280;45213;32.654;-115.458;2023-02-23T05:20:07;101406.78;;;11.15;34.78
59409;BME280;45213;32.654;-115.458;2023-02-23T05:22:34;101399.84;;;11.17;34.26
59409;BME280;45213;32.654;-115.458;2023-02-23T05:25:01;101400.63;;;11.12;34.59
59409;BME280;45213;32.654;-115.458;2023-02-23T05:27:30;101400.66;;;11.15;34.52
59409;BME280;45213;32.654;-115.458;2023-02-23T05:29:58;101412.91;;;11.19;34.29
59409;BME280;45213;32.654;-115.458;2023-02-23T05:32:25;101419.88;;;11.20;34.69
59409;BME280;45213;32.654;-115.458;2023-02-23T05:34:52;101419.50;;;10.98;35.89
59409;BME280;45213;32.654;-115.458;2023-02-23T05:37:20;101416.91;;;10.98;36.09
59409;BME280;45213;32.654;-115.458;2023-02-23T05:39:47;101423.72;;;10.92;36.39
59409;BME280;45213;32.654;-115.458;2023-02-23T05:42:15;101426.31;;;10.90;36.54
59409;BME280;45213;32.654;-115.458;2023-02-23T05:44:43;101430.41;;;10.77;36.74
59409;BME280;45213;32.654;-115.458;2023-02-23T05:47:10;101433.88;;;10.76;37.52
59409;BME280;45213;32.654;-115.458;2023-02-23T05:49:38;101429.63;;;10.81;37.89
59409;BME280;45213;32.654;-115.458;2023-02-23T05:52:06;101422.59;;;10.77;37.83
59409;BME280;45213;32.654;-115.458;2023-02-23T05:54:34;101426.13;;;10.81;37.45
59409;BME280;45213;32.654;-115.458;2023-02-23T05:57:01;101424.47;;;10.84;37.17
59409;BME280;45213;32.654;-115.458;2023-02-23T05:59:29;101431.41;;;10.84;37.15
59409;BME280;45213;32.654;-115.458;2023-02-23T06:01:57;101427.97;;;10.86;37.56
59409;BME280;45213;32.654;-115.458;2023-02-23T06:04:25;101428.94;;;10.90;37.89
59409;BME280;45213;32.654;-115.458;2023-02-23T06:06:53;101429.69;;;10.84;38.31
59409;BME280;45213;32.654;-115.458;2023-02-23T06:09:20;101431.56;;;10.93;37.83
59409;BME280;45213;32.654;-115.458;2023-02-23T06:11:47;101434.81;;;10.80;38.19
59409;BME280;45213;32.654;-115.458;2023-02-23T06:14:15;101446.75;;;10.69;37.27
59409;BME280;45213;32.654;-115.458;2023-02-23T06:16:42;101456.94;;;10.56;36.91
59409;BME280;45213;32.654;-115.458;2023-02-23T06:19:11;101463.63;;;10.43;36.32
59409;BME280;45213;32.654;-115.458;2023-02-23T06:21:38;101463.84;;;10.56;36.10
59409;BME280;45213;32.654;-115.458;2023-02-23T06:24:05;101457.91;;;10.61;36.17
59409;BME280;45213;32.654;-115.458;2023-02-23T06:26:32;101455.34;;;10.64;36.23
59409;BME280;45213;32.654;-115.458;2023-02-23T06:29:00;101431.00;;;10.62;36.30
59409;BME280;45213;32.654;-115.458;2023-02-23T06:31:27;101437.97;;;10.63;36.46
59409;BME280;45213;32.654;-115.458;2023-02-23T06:33:55;101443.97;;;10.59;36.56
59409;BME280;45213;32.654;-115.458;2023-02-23T06:36:22;101434.41;;;10.58;36.77
59409;BME280;45213;32.654;-115.458;2023-02-23T06:38:49;101440.53;;;10.62;36.88
59409;BME280;45213;32.654;-115.458;2023-02-23T06:41:16;101446.63;;;10.62;36.81
59409;BME280;45213;32.654;-115.458;2023-02-23T06:43:42;101441.31;;;10.56;37.10
59409;BME280;45213;32.654;-115.458;2023-02-23T06:46:09;101451.66;;;10.53;37.53
59409;BME280;45213;32.654;-115.458;2023-02-23T06:48:36;101456.88;;;10.53;37.44
59409;BME280;45213;32.654;-115.458;2023-02-23T06:51:03;101458.69;;;10.57;37.57
59409;BME280;45213;32.654;-115.458;2023-02-23T06:53:29;101451.88;;;10.64;37.51
59409;BME280;45213;32.654;-115.458;2023-02-23T06:55:56;101459.59;;;10.59;37.62
59409;BME280;45213;32.654;-115.458;2023-02-23T06:58:23;101451.59;;;10.50;37.60
59409;BME280;45213;32.654;-115.458;2023-02-23T07:00:50;101449.97;;;10.54;37.59
59409;BME280;45213;32.654;-115.458;2023-02-23T07:03:17;101450.81;;;10.54;37.83
59409;BME280;45213;32.654;-115.458;2023-02-23T07:05:44;101450.75;;;10.50;37.72
59409;BME280;45213;32.654;-115.458;2023-02-23T07:08:11;101438.44;;;10.42;38.00
59409;BME280;45213;32.654;-115.458;2023-02-23T07:10:37;101432.31;;;10.40;38.11
59409;BME280;45213;32.654;-115.458;2023-02-23T07:13:04;101432.38;;;10.43;38.06
59409;BME280;45213;32.654;-115.458;2023-02-23T07:15:30;101422.00;;;10.45;37.80
59409;BME280;45213;32.654;-115.458;2023-02-23T07:17:57;101428.09;;;10.45;37.83
59409;BME280;45213;32.654;-115.458;2023-02-23T07:20:23;101431.56;;;10.46;38.20
59409;BME280;45213;32.654;-115.458;2023-02-23T07:22:50;101427.38;;;10.54;38.01
59409;BME280;45213;32.654;-115.458;2023-02-23T07:25:17;101437.63;;;10.45;38.39
59409;BME280;45213;32.654;-115.458;2023-02-23T07:27:43;101437.69;;;10.48;38.16
59409;BME280;45213;32.654;-115.458;2023-02-23T07:30:11;101441.13;;;10.47;38.58
59409;BME280;45213;32.654;-115.458;2023-02-23T07:32:38;101438.53;;;10.47;38.53
59409;BME280;45213;32.654;-115.458;2023-02-23T07:35:05;101438.38;;;10.39;38.63
59409;BME280;45213;32.654;-115.458;2023-02-23T07:37:32;101443.56;;;10.39;38.51
59409;BME280;45213;32.654;-115.458;2023-02-23T07:39:59;101448.81;;;10.41;38.48
59409;BME280;45213;32.654;-115.458;2023-02-23T07:42:26;101449.66;;;10.40;38.52
59409;BME280;45213;32.654;-115.458;2023-02-23T07:44:52;101449.75;;;10.44;38.22
59409;BME280;45213;32.654;-115.458;2023-02-23T07:47:19;101457.56;;;10.44;38.48
59409;BME280;45213;32.654;-115.458;2023-02-23T07:49:47;101455.69;;;10.37;38.67
59409;BME280;45213;32.654;-115.458;2023-02-23T07:52:16;101451.38;;;10.39;38.45
59409;BME280;45213;32.654;-115.458;2023-02-23T07:54:44;101460.09;;;10.41;38.77
59409;BME280;45213;32.654;-115.458;2023-02-23T07:57:10;101461.84;;;10.41;38.73
59409;BME280;45213;32.654;-115.458;2023-02-23T07:59:37;101459.19;;;10.39;38.81
59409;BME280;45213;32.654;-115.458;2023-02-23T08:02:04;101461.69;;;10.35;39.06
59409;BME280;45213;32.654;-115.458;2023-02-23T08:04:32;101456.56;;;10.38;38.84
59409;BME280;45213;32.654;-115.458;2023-02-23T08:06:58;101446.03;;;10.32;39.01
59409;BME280;45213;32.654;-115.458;2023-02-23T08:09:25;101450.56;;;10.40;38.64
59409;BME280;45213;32.654;-115.458;2023-02-23T08:11:52;101452.25;;;10.40;38.59
59409;BME280;45213;32.654;-115.458;2023-02-23T08:14:18;101445.81;;;10.24;39.20
59409;BME280;45213;32.654;-115.458;2023-02-23T08:16:48;101445.66;;;10.16;39.40
59409;BME280;45213;32.654;-115.458;2023-02-23T08:19:15;101456.75;;;10.08;39.64
59409;BME280;45213;32.654;-115.458;2023-02-23T08:21:42;101457.50;;;10.02;39.87
59409;BME280;45213;32.654;-115.458;2023-02-23T08:24:08;101464.44;;;10.01;39.91
59409;BME280;45213;32.654;-115.458;2023-02-23T08:26:36;101458.34;;;10.01;39.96
59409;BME280;45213;32.654;-115.458;2023-02-23T08:29:06;101464.41;;;10.00;40.01
59409;BME280;45213;32.654;-115.458;2023-02-23T08:31:33;101467.78;;;9.96;40.05
59409;BME280;45213;32.654;-115.458;2023-02-23T08:34:00;101486.84;;;9.96;39.99
59409;BME280;45213;32.654;-115.458;2023-02-23T08:36:27;101486.81;;;9.93;40.17
59409;BME280;45213;32.654;-115.458;2023-02-23T08:38:53;101488.53;;;9.94;40.06
59409;BME280;45213;32.654;-115.458;2023-02-23T08:41:21;101484.34;;;9.99;40.10
59409;BME280;45213;32.654;-115.458;2023-02-23T08:43:47;101493.94;;;10.02;40.03
59409;BME280;45213;32.654;-115.458;2023-02-23T08:46:14;101494.56;;;9.92;40.25
59409;BME280;45213;32.654;-115.458;2023-02-23T08:48:43;101485.13;;;9.97;40.47
59409;BME280;45213;32.654;-115.458;2023-02-23T08:51:10;101482.72;;;10.04;40.61
59409;BME280;45213;32.654;-115.458;2023-02-23T08:53:36;101494.88;;;10.06;40.31
59409;BME280;45213;32.654;-115.458;2023-02-23T08:56:05;101492.09;;;9.98;40.19
59409;BME280;45213;32.654;-115.458;2023-02-23T08:58:33;101487.63;;;9.92;40.59
59409;BME280;45213;32.654;-115.458;2023-02-23T09:01:01;101503.31;;;9.95;40.37
59409;BME280;45213;32.654;-115.458;2023-02-23T09:03:28;101503.59;;;10.08;39.70
59409;BME280;45213;32.654;-115.458;2023-02-23T09:05:57;101502.97;;;10.19;39.67
59409;BME280;45213;32.654;-115.458;2023-02-23T09:08:24;101508.22;;;10.21;40.00
59409;BME280;45213;32.654;-115.458;2023-02-23T09:10:50;101506.50;;;10.21;39.07
59409;BME280;45213;32.654;-115.458;2023-02-23T09:13:17;101507.47;;;10.25;38.79
59409;BME280;45213;32.654;-115.458;2023-02-23T09:15:43;101513.72;;;10.32;38.90
59409;BME280;45213;32.654;-115.458;2023-02-23T09:18:11;101515.47;;;10.33;39.78
59409;BME280;45213;32.654;-115.458;2023-02-23T09:20:44;101513.84;;;10.38;39.26
59409;BME280;45213;32.654;-115.458;2023-02-23T09:23:11;101518.25;;;10.42;39.88
59409;BME280;45213;32.654;-115.458;2023-02-23T09:25:42;101517.44;;;10.43;40.44
59409;BME280;45213;32.654;-115.458;2023-02-23T09:28:13;101523.50;;;10.43;40.42
59409;BME280;45213;32.654;-115.458;2023-02-23T09:30:42;101522.69;;;10.46;40.97
59409;BME280;45213;32.654;-115.458;2023-02-23T09:33:10;101524.44;;;10.45;40.86
59409;BME280;45213;32.654;-115.458;2023-02-23T09:35:38;101526.22;;;10.48;40.45
59409;BME280;45213;32.654;-115.458;2023-02-23T09:38:06;101522.69;;;10.46;40.44
59409;BME280;45213;32.654;-115.458;2023-02-23T09:40:45;101524.47;;;10.47;40.86
59409;BME280;45213;32.654;-115.458;2023-02-23T09:48:27;101516.84;;;10.58;40.37
59409;BME280;45213;32.654;-115.458;2023-02-23T09:50:56;101521.97;;;10.53;40.15
59409;BME280;45213;32.654;-115.458;2023-02-23T09:56:37;101522.72;;;10.48;40.64
59409;BME280;45213;32.654;-115.458;2023-02-23T09:59:12;101522.00;;;10.55;41.44
59409;BME280;45213;32.654;-115.458;2023-02-23T10:04:52;101514.16;;;10.52;42.01
59409;BME280;45213;32.654;-115.458;2023-02-23T10:10:12;101521.13;;;10.54;42.71
59409;BME280;45213;32.654;-115.458;2023-02-23T10:18:08;101531.56;;;10.56;43.62
59409;BME280;45213;32.654;-115.458;2023-02-23T10:23:14;101534.16;;;10.56;43.98
59409;BME280;45213;32.654;-115.458;2023-02-23T10:25:47;101533.28;;;10.55;43.90
59409;BME280;45213;32.654;-115.458;2023-02-23T10:28:17;101533.38;;;10.58;43.83
59409;BME280;45213;32.654;-115.458;2023-02-23T10:30:45;101526.50;;;10.62;44.57
59409;BME280;45213;32.654;-115.458;2023-02-23T10:33:33;101531.75;;;10.63;44.34
59409;BME280;45213;32.654;-115.458;2023-02-23T10:36:17;101530.94;;;10.66;43.70
59409;BME280;45213;32.654;-115.458;2023-02-23T10:38:45;101531.88;;;10.71;44.57
59409;BME280;45213;32.654;-115.458;2023-02-23T10:41:12;101530.16;;;10.72;44.73
59409;BME280;45213;32.654;-115.458;2023-02-23T10:43:39;101531.75;;;10.63;44.79
59409;BME280;45213;32.654;-115.458;2023-02-23T10:46:06;101527.34;;;10.61;45.42
59409;BME280;45213;32.654;-115.458;2023-02-23T10:48:38;101531.84;;;10.68;46.12
59409;BME280;45213;32.654;-115.458;2023-02-23T10:51:20;101524.84;;;10.65;46.01
59409;BME280;45213;32.654;-115.458;2023-02-23T10:53:49;101517.88;;;10.64;46.39
59409;BME280;45213;32.654;-115.458;2023-02-23T10:56:18;101510.22;;;10.74;47.59
59409;BME280;45213;32.654;-115.458;2023-02-23T10:58:46;101510.13;;;10.68;47.13
59409;BME280;45213;32.654;-115.458;2023-02-23T11:01:40;101501.28;;;10.59;47.18
59409;BME280;45213;32.654;-115.458;2023-02-23T11:04:30;101500.50;;;10.63;47.51
59409;BME280;45213;32.654;-115.458;2023-02-23T11:07:16;101499.53;;;10.60;47.36
59409;BME280;45213;32.654;-115.458;2023-02-23T11:09:43;101496.09;;;10.61;48.34
59409;BME280;45213;32.654;-115.458;2023-02-23T11:12:18;101499.63;;;10.63;47.79
59409;BME280;45213;32.654;-115.458;2023-02-23T11:14:47;101501.31;;;10.62;47.90
59409;BME280;45213;32.654;-115.458;2023-02-23T11:20:05;101495.16;;;10.57;48.56
59409;BME280;45213;32.654;-115.458;2023-02-23T11:22:35;101498.66;;;10.59;48.49
59409;BME280;45213;32.654;-115.458;2023-02-23T11:25:13;101500.94;;;10.42;48.37
59409;BME280;45213;32.654;-115.458;2023-02-23T11:27:45;101508.75;;;10.44;49.11
59409;BME280;45213;32.654;-115.458;2023-02-23T11:30:20;101514.09;;;10.50;48.97
59409;BME280;45213;32.654;-115.458;2023-02-23T11:32:57;101517.44;;;10.43;48.40
59409;BME280;45213;32.654;-115.458;2023-02-23T11:35:27;101510.59;;;10.48;48.52
59409;BME280;45213;32.654;-115.458;2023-02-23T11:37:55;101508.84;;;10.47;48.44
59409;BME280;45213;32.654;-115.458;2023-02-23T11:40:29;101493.63;;;10.28;48.80
59409;BME280;45213;32.654;-115.458;2023-02-23T11:43:12;101500.84;;;10.39;49.50
59409;BME280;45213;32.654;-115.458;2023-02-23T11:48:43;101497.38;;;10.39;49.36
59409;BME280;45213;32.654;-115.458;2023-02-23T11:51:39;101508.41;;;10.29;49.71
59409;BME280;45213;32.654;-115.458;2023-02-23T11:54:28;101515.47;;;10.33;49.77
59409;BME280;45213;32.654;-115.458;2023-02-23T11:56:56;101520.63;;;10.30;49.75
59409;BME280;45213;32.654;-115.458;2023-02-23T11:59:36;101526.44;;;10.21;49.89
59409;BME280;45213;32.654;-115.458;2023-02-23T12:02:25;101527.31;;;10.21;50.23
59409;BME280;45213;32.654;-115.458;2023-02-23T12:05:06;101521.16;;;10.16;50.51
59409;BME280;45213;32.654;-115.458;2023-02-23T12:10:44;101527.00;;;10.06;51.10
59409;BME280;45213;32.654;-115.458;2023-02-23T12:15:50;101520.78;;;9.99;51.76
59409;BME280;45213;32.654;-115.458;2023-02-23T12:20:57;101504.84;;;9.87;51.98
59409;BME280;45213;32.654;-115.458;2023-02-23T12:23:28;101496.94;;;9.82;52.69
59409;BME280;45213;32.654;-115.458;2023-02-23T12:26:03;101500.25;;;9.75;52.46
59409;BME280;45213;32.654;-115.458;2023-02-23T12:34:01;101511.72;;;9.49;54.71
59409;BME280;45213;32.654;-115.458;2023-02-23T12:36:38;101517.19;;;9.25;54.02
59409;BME280;45213;32.654;-115.458;2023-02-23T12:39:33;101522.53;;;9.29;53.37
59409;BME280;45213;32.654;-115.458;2023-02-23T12:45:06;101521.78;;;9.33;53.00
59409;BME280;45213;32.654;-115.458;2023-02-23T13:02:16;101551.09;;;9.29;51.56
59409;BME280;45213;32.654;-115.458;2023-02-23T13:07:46;101546.13;;;9.05;49.88
59409;BME280;45213;32.654;-115.458;2023-02-23T13:13:11;101550.19;;;8.95;48.74
59409;BME280;45213;32.654;-115.458;2023-02-23T13:16:00;101546.41;;;8.84;47.75
59409;BME280;45213;32.654;-115.458;2023-02-23T13:21:17;101550.38;;;8.71;47.22
59409;BME280;45213;32.654;-115.458;2023-02-23T13:26:33;101567.88;;;8.48;47.03
59409;BME280;45213;32.654;-115.458;2023-02-23T13:29:33;101555.22;;;8.32;48.07
59409;BME280;45213;32.654;-115.458;2023-02-23T13:32:03;101548.47;;;8.37;47.99
59409;BME280;45213;32.654;-115.458;2023-02-23T13:34:35;101540.13;;;8.19;48.26
59409;BME280;45213;32.654;-115.458;2023-02-23T13:37:05;101549.47;;;8.13;47.87
59409;BME280;45213;32.654;-115.458;2023-02-23T13:51:36;101554.84;;;8.20;48.50
59409;BME280;45213;32.654;-115.458;2023-02-23T13:56:45;101543.59;;;7.92;49.00
59409;BME280;45213;32.654;-115.458;2023-02-23T13:59:27;101550.78;;;8.01;49.44
59409;BME280;45213;32.654;-115.458;2023-02-23T14:01:55;101552.38;;;7.95;48.64
59409;BME280;45213;32.654;-115.458;2023-02-23T14:04:36;101552.22;;;7.91;49.04
59409;BME280;45213;32.654;-115.458;2023-02-23T14:10:24;101579.81;;;7.89;48.44
59409;BME280;45213;32.654;-115.458;2023-02-23T14:29:21;101587.94;;;7.74;48.35
59409;BME280;45213;32.654;-115.458;2023-02-23T14:34:22;101592.50;;;8.91;45.49
59409;BME280;45213;32.654;-115.458;2023-02-23T14:36:49;101598.41;;;10.17;42.19
59409;BME280;45213;32.654;-115.458;2023-02-23T14:39:28;101592.47;;;10.62;39.85
59409;BME280;45213;32.654;-115.458;2023-02-23T14:41:57;101613.94;;;10.92;38.77
59409;BME280;45213;32.654;-115.458;2023-02-23T14:44:35;101620.34;;;11.52;38.44
59409;BME280;45213;32.654;-115.458;2023-02-23T14:47:11;101614.50;;;12.15;37.15
59409;BME280;45213;32.654;-115.458;2023-02-23T14:49:47;101617.53;;;12.44;36.67
59409;BME280;45213;32.654;-115.458;2023-02-23T14:54:46;101625.09;;;13.58;34.57
59409;BME280;45213;32.654;-115.458;2023-02-23T14:57:24;101617.34;;;13.71;33.84
59409;BME280;45213;32.654;-115.458;2023-02-23T14:59:56;101623.84;;;14.16;33.12
59409;BME280;45213;32.654;-115.458;2023-02-23T15:02:25;101621.19;;;14.08;33.39
59409;BME280;45213;32.654;-115.458;2023-02-23T15:04:52;101622.19;;;14.27;32.57